sensor_id;sensor_type;location;lat;lon;timestamp;P1;durP1;ratioP1;P2;durP2;ratioP2
4460;SDS011;2243;48.812;9.232;2023-02-13T00:02:27;14.90;;;10.80;;
4460;SDS011;2243;48.812;9.232;2023-02-13T00:04:58;19.07;;;11.07;;
4460;SDS011;2243;48.812;9.232;2023-02-13T00:07:29;13.80;;;10.40;;
4460;SDS011;2243;48.812;9.232;2023-02-13T00:10:00;14.03;;;11.60;;
4460;SDS011;2243;48.812;9.232;2023-02-13T00:12:31;16.87;;;11.40;;
4460;SDS011;2243;48.812;9.232;2023-02-13T00:15:02;15.87;;;11.33;;
4460;SDS011;2243;48.812;9.232;2023-02-13T00:17:34;20.83;;;12.00;;
4460;SDS011;2243;48.812;9.232;2023-02-13T00:20:05;20.50;;;12.10;;
4460;SDS011;2243;48.812;9.232;2023-02-13T00:22:37;15.30;;;10.90;;
4460;SDS011;2243;48.812;9.232;2023-02-13T00:25:09;14.93;;;10.87;;
4460;SDS011;2243;48.812;9.232;2023-02-13T00:27:40;15.80;;;11.50;;
4460;SDS011;2243;48.812;9.232;2023-02-13T00:30:11;20.10;;;12.77;;
4460;SDS011;2243;48.812;9.232;2023-02-13T00:32:43;14.50;;;11.00;;
4460;SDS011;2243;48.812;9.232;2023-02-13T00:35:14;17.53;;;11.50;;
4460;SDS011;2243;48.812;9.232;2023-02-13T00:37:45;17.20;;;11.63;;
4460;SDS011;2243;48.812;9.232;2023-02-13T00:40:16;15.10;;;10.77;;
4460;SDS011;2243;48.812;9.232;2023-02-13T00:42:47;14.70;;;11.43;;
4460;SDS011;2243;48.812;9.232;2023-02-13T00:45:18;16.83;;;11.37;;
4460;SDS011;2243;48.812;9.232;2023-02-13T00:47:49;15.27;;;11.60;;
4460;SDS011;2243;48.812;9.232;2023-02-13T00:50:20;14.80;;;11.00;;
4460;SDS011;2243;48.812;9.232;2023-02-13T00:52:51;12.03;;;10.00;;
4460;SDS011;2243;48.812;9.232;2023-02-13T00:55:22;14.43;;;10.43;;
4460;SDS011;2243;48.812;9.232;2023-02-13T00:57:52;17.07;;;12.00;;
4460;SDS011;2243;48.812;9.232;2023-02-13T01:00:23;13.30;;;10.93;;
4460;SDS011;2243;48.812;9.232;2023-02-13T01:02:54;17.33;;;12.20;;
4460;SDS011;2243;48.812;9.232;2023-02-13T01:05:26;18.20;;;12.30;;
4460;SDS011;2243;48.812;9.232;2023-02-13T01:07:57;15.73;;;11.60;;
4460;SDS011;2243;48.812;9.232;2023-02-13T01:10:28;16.00;;;12.40;;
4460;SDS011;2243;48.812;9.232;2023-02-13T01:12:59;16.00;;;11.13;;
4460;SDS011;2243;48.812;9.232;2023-02-13T01:15:30;16.83;;;11.70;;
4460;SDS011;2243;48.812;9.232;2023-02-13T01:18:02;14.27;;;11.23;;
4460;SDS011;2243;48.812;9.232;2023-02-13T01:20:33;14.13;;;10.87;;
4460;SDS011;2243;48.812;9.232;2023-02-13T01:23:04;16.30;;;11.60;;
4460;SDS011;2243;48.812;9.232;2023-02-13T01:25:40;17.77;;;11.10;;
4460;SDS011;2243;48.812;9.232;2023-02-13T01:28:11;11.93;;;10.17;;
4460;SDS011;2243;48.812;9.232;2023-02-13T01:30:43;16.97;;;10.87;;
4460;SDS011;2243;48.812;9.232;2023-02-13T01:33:14;13.60;;;10.33;;
4460;SDS011;2243;48.812;9.232;2023-02-13T01:35:45;16.00;;;10.60;;
4460;SDS011;2243;48.812;9.232;2023-02-13T01:38:16;18.33;;;11.23;;
4460;SDS011;2243;48.812;9.232;2023-02-13T01:40:48;14.80;;;10.67;;
4460;SDS011;2243;48.812;9.232;2023-02-13T01:43:22;19.47;;;11.40;;
4460;SDS011;2243;48.812;9.232;2023-02-13T01:45:54;15.47;;;11.20;;
4460;SDS011;2243;48.812;9.232;2023-02-13T01:48:26;16.23;;;11.50;;
4460;SDS011;2243;48.812;9.232;2023-02-13T01:51:05;15.97;;;10.67;;
4460;SDS011;2243;48.812;9.232;2023-02-13T01:53:43;15.50;;;11.00;;
4460;SDS011;2243;48.812;9.232;2023-02-13T01:56:24;14.83;;;10.73;;
4460;SDS011;2243;48.812;9.232;2023-02-13T01:59:07;15.20;;;10.23;;
4460;SDS011;2243;48.812;9.232;2023-02-13T02:01:43;17.47;;;12.33;;
4460;SDS011;2243;48.812;9.232;2023-02-13T02:04:16;15.77;;;10.87;;
4460;SDS011;2243;48.812;9.232;2023-02-13T02:06:54;17.17;;;10.20;;
4460;SDS011;2243;48.812;9.232;2023-02-13T02:09:36;15.97;;;11.03;;
4460;SDS011;2243;48.812;9.232;2023-02-13T02:14:51;16.70;;;11.50;;
4460;SDS011;2243;48.812;9.232;2023-02-13T02:17:25;15.67;;;10.60;;
4460;SDS011;2243;48.812;9.232;2023-02-13T02:20:03;18.63;;;11.60;;
4460;SDS011;2243;48.812;9.232;2023-02-13T02:31:51;17.70;;;11.03;;
4460;SDS011;2243;48.812;9.232;2023-02-13T02:47:53;21.60;;;11.47;;
4460;SDS011;2243;48.812;9.232;2023-02-13T02:53:32;15.73;;;10.23;;
4460;SDS011;2243;48.812;9.232;2023-02-13T02:56:26;14.50;;;11.10;;
4460;SDS011;2243;48.812;9.232;2023-02-13T02:59:10;17.70;;;10.90;;
4460;SDS011;2243;48.812;9.232;2023-02-13T03:02:03;17.50;;;11.43;;
4460;SDS011;2243;48.812;9.232;2023-02-13T03:04:55;16.90;;;10.40;;
4460;SDS011;2243;48.812;9.232;2023-02-13T03:07:46;15.23;;;10.30;;
4460;SDS011;2243;48.812;9.232;2023-02-13T03:10:24;18.80;;;11.90;;
4460;SDS011;2243;48.812;9.232;2023-02-13T03:13:30;13.70;;;10.03;;
4460;SDS011;2243;48.812;9.232;2023-02-13T03:16:15;14.40;;;11.33;;
4460;SDS011;2243;48.812;9.232;2023-02-13T03:19:12;16.20;;;10.97;;
4460;SDS011;2243;48.812;9.232;2023-02-13T03:28:27;17.70;;;10.67;;
4460;SDS011;2243;48.812;9.232;2023-02-13T03:31:53;14.77;;;10.50;;
4460;SDS011;2243;48.812;9.232;2023-02-13T03:34:51;14.63;;;10.83;;
4460;SDS011;2243;48.812;9.232;2023-02-13T03:37:53;16.50;;;10.33;;
4460;SDS011;2243;48.812;9.232;2023-02-13T03:40:46;16.70;;;10.23;;
4460;SDS011;2243;48.812;9.232;2023-02-13T03:46:47;16.33;;;11.03;;
4460;SDS011;2243;48.812;9.232;2023-02-13T03:49:26;19.50;;;11.70;;
4460;SDS011;2243;48.812;9.232;2023-02-13T03:52:31;20.03;;;11.07;;
4460;SDS011;2243;48.812;9.232;2023-02-13T03:55:18;16.60;;;10.77;;
4460;SDS011;2243;48.812;9.232;2023-02-13T03:58:26;16.90;;;10.33;;
4460;SDS011;2243;48.812;9.232;2023-02-13T04:01:38;18.40;;;11.00;;
4460;SDS011;2243;48.812;9.232;2023-02-13T04:04:25;17.97;;;11.07;;
4460;SDS011;2243;48.812;9.232;2023-02-13T04:07:30;16.10;;;10.63;;
4460;SDS011;2243;48.812;9.232;2023-02-13T04:10:03;15.93;;;11.37;;
4460;SDS011;2243;48.812;9.232;2023-02-13T04:12:41;18.10;;;10.70;;
4460;SDS011;2243;48.812;9.232;2023-02-13T04:15:40;20.20;;;12.27;;
4460;SDS011;2243;48.812;9.232;2023-02-13T04:18:20;20.07;;;11.50;;
4460;SDS011;2243;48.812;9.232;2023-02-13T04:20:55;15.53;;;11.03;;
4460;SDS011;2243;48.812;9.232;2023-02-13T04:23:30;16.23;;;9.20;;
4460;SDS011;2243;48.812;9.232;2023-02-13T04:26:03;15.30;;;10.50;;
4460;SDS011;2243;48.812;9.232;2023-02-13T04:28:38;16.57;;;9.57;;
4460;SDS011;2243;48.812;9.232;2023-02-13T04:31:09;16.20;;;11.60;;
4460;SDS011;2243;48.812;9.232;2023-02-13T04:33:40;13.77;;;9.63;;
4460;SDS011;2243;48.812;9.232;2023-02-13T04:36:11;16.10;;;11.70;;
4460;SDS011;2243;48.812;9.232;2023-02-13T04:38:42;17.30;;;11.13;;
4460;SDS011;2243;48.812;9.232;2023-02-13T04:41:14;13.37;;;10.37;;
4460;SDS011;2243;48.812;9.232;2023-02-13T04:43:45;12.17;;;9.67;;
4460;SDS011;2243;48.812;9.232;2023-02-13T04:46:17;24.50;;;11.63;;
4460;SDS011;2243;48.812;9.232;2023-02-13T04:48:48;18.47;;;11.30;;
4460;SDS011;2243;48.812;9.232;2023-02-13T04:51:19;16.60;;;10.90;;
4460;SDS011;2243;48.812;9.232;2023-02-13T04:53:50;16.23;;;10.40;;
4460;SDS011;2243;48.812;9.232;2023-02-13T04:56:21;16.13;;;11.77;;
4460;SDS011;2243;48.812;9.232;2023-02-13T04:58:53;19.87;;;11.07;;
4460;SDS011;2243;48.812;9.232;2023-02-13T05:01:25;12.70;;;9.83;;
4460;SDS011;2243;48.812;9.232;2023-02-13T05:03:56;20.10;;;11.70;;
4460;SDS011;2243;48.812;9.232;2023-02-13T05:06:27;15.27;;;10.37;;
4460;SDS011;2243;48.812;9.232;2023-02-13T05:08:58;18.90;;;11.20;;
4460;SDS011;2243;48.812;9.232;2023-02-13T05:11:28;19.90;;;11.13;;
4460;SDS011;2243;48.812;9.232;2023-02-13T05:13:59;17.50;;;10.80;;
4460;SDS011;2243;48.812;9.232;2023-02-13T05:16:30;21.00;;;12.13;;
4460;SDS011;2243;48.812;9.232;2023-02-13T05:19:01;15.30;;;11.17;;
4460;SDS011;2243;48.812;9.232;2023-02-13T05:21:32;16.20;;;11.00;;
4460;SDS011;2243;48.812;9.232;2023-02-13T05:24:22;18.60;;;11.73;;
4460;SDS011;2243;48.812;9.232;2023-02-13T05:26:53;14.83;;;11.00;;
4460;SDS011;2243;48.812;9.232;2023-02-13T05:29:24;14.27;;;10.33;;
4460;SDS011;2243;48.812;9.232;2023-02-13T05:31:55;17.17;;;10.63;;
4460;SDS011;2243;48.812;9.232;2023-02-13T05:34:28;20.77;;;11.27;;
4460;SDS011;2243;48.812;9.232;2023-02-13T05:36:59;15.40;;;10.67;;
4460;SDS011;2243;48.812;9.232;2023-02-13T05:39:30;17.30;;;9.53;;
4460;SDS011;2243;48.812;9.232;2023-02-13T05:42:01;14.30;;;10.20;;
4460;SDS011;2243;48.812;9.232;2023-02-13T05:44:33;18.53;;;12.33;;
4460;SDS011;2243;48.812;9.232;2023-02-13T05:47:04;20.50;;;10.77;;
4460;SDS011;2243;48.812;9.232;2023-02-13T05:49:35;19.17;;;10.97;;
4460;SDS011;2243;48.812;9.232;2023-02-13T05:52:06;19.00;;;10.60;;
4460;SDS011;2243;48.812;9.232;2023-02-13T05:54:37;16.07;;;10.43;;
4460;SDS011;2243;48.812;9.232;2023-02-13T05:57:08;17.73;;;11.50;;
4460;SDS011;2243;48.812;9.232;2023-02-13T05:59:39;14.43;;;11.00;;
4460;SDS011;2243;48.812;9.232;2023-02-13T06:02:10;16.40;;;10.60;;
4460;SDS011;2243;48.812;9.232;2023-02-13T06:04:41;17.63;;;10.33;;
4460;SDS011;2243;48.812;9.232;2023-02-13T06:07:12;15.13;;;9.80;;
4460;SDS011;2243;48.812;9.232;2023-02-13T06:09:43;17.57;;;10.57;;
4460;SDS011;2243;48.812;9.232;2023-02-13T06:12:14;16.27;;;12.27;;
4460;SDS011;2243;48.812;9.232;2023-02-13T06:14:45;17.80;;;11.70;;
4460;SDS011;2243;48.812;9.232;2023-02-13T06:17:16;16.97;;;12.00;;
4460;SDS011;2243;48.812;9.232;2023-02-13T06:19:46;17.10;;;11.10;;
4460;SDS011;2243;48.812;9.232;2023-02-13T06:22:17;17.57;;;11.67;;
4460;SDS011;2243;48.812;9.232;2023-02-13T06:24:48;20.93;;;10.60;;
4460;SDS011;2243;48.812;9.232;2023-02-13T06:27:19;20.03;;;11.40;;
4460;SDS011;2243;48.812;9.232;2023-02-13T06:29:50;16.27;;;11.77;;
4460;SDS011;2243;48.812;9.232;2023-02-13T06:32:21;15.90;;;10.67;;
4460;SDS011;2243;48.812;9.232;2023-02-13T06:34:52;19.57;;;12.27;;
4460;SDS011;2243;48.812;9.232;2023-02-13T06:37:23;14.73;;;10.33;;
4460;SDS011;2243;48.812;9.232;2023-02-13T06:39:54;18.20;;;12.30;;
4460;SDS011;2243;48.812;9.232;2023-02-13T06:42:25;21.40;;;12.90;;
4460;SDS011;2243;48.812;9.232;2023-02-13T06:44:56;22.37;;;13.90;;
4460;SDS011;2243;48.812;9.232;2023-02-13T06:47:27;18.53;;;14.20;;
4460;SDS011;2243;48.812;9.232;2023-02-13T06:49:58;14.53;;;9.93;;
4460;SDS011;2243;48.812;9.232;2023-02-13T06:52:29;14.53;;;10.97;;
4460;SDS011;2243;48.812;9.232;2023-02-13T06:55:00;16.53;;;10.83;;
4460;SDS011;2243;48.812;9.232;2023-02-13T06:57:31;19.77;;;11.87;;
4460;SDS011;2243;48.812;9.232;2023-02-13T07:00:03;21.07;;;11.97;;
4460;SDS011;2243;48.812;9.232;2023-02-13T07:02:35;19.30;;;11.67;;
4460;SDS011;2243;48.812;9.232;2023-02-13T07:05:07;17.90;;;10.20;;
4460;SDS011;2243;48.812;9.232;2023-02-13T07:07:39;20.70;;;11.20;;
4460;SDS011;2243;48.812;9.232;2023-02-13T07:10:11;20.13;;;11.87;;
4460;SDS011;2243;48.812;9.232;2023-02-13T07:12:43;18.50;;;10.90;;
4460;SDS011;2243;48.812;9.232;2023-02-13T07:15:23;17.87;;;11.50;;
4460;SDS011;2243;48.812;9.232;2023-02-13T07:17:54;15.80;;;10.80;;
4460;SDS011;2243;48.812;9.232;2023-02-13T07:20:26;20.73;;;11.97;;
4460;SDS011;2243;48.812;9.232;2023-02-13T07:23:01;22.10;;;12.27;;
4460;SDS011;2243;48.812;9.232;2023-02-13T07:25:35;15.33;;;11.93;;
4460;SDS011;2243;48.812;9.232;2023-02-13T07:28:05;18.47;;;12.10;;
4460;SDS011;2243;48.812;9.232;2023-02-13T07:30:36;22.17;;;13.87;;
4460;SDS011;2243;48.812;9.232;2023-02-13T07:33:08;19.37;;;14.13;;
4460;SDS011;2243;48.812;9.232;2023-02-13T07:35:48;21.43;;;13.40;;
4460;SDS011;2243;48.812;9.232;2023-02-13T07:38:21;22.10;;;14.03;;
4460;SDS011;2243;48.812;9.232;2023-02-13T07:40:52;25.37;;;13.97;;
4460;SDS011;2243;48.812;9.232;2023-02-13T07:43:22;18.47;;;11.57;;
4460;SDS011;2243;48.812;9.232;2023-02-13T07:45:57;24.07;;;13.60;;
4460;SDS011;2243;48.812;9.232;2023-02-13T07:48:30;21.40;;;13.00;;
4460;SDS011;2243;48.812;9.232;2023-02-13T07:51:02;19.30;;;13.37;;
4460;SDS011;2243;48.812;9.232;2023-02-13T07:53:34;21.40;;;13.70;;
4460;SDS011;2243;48.812;9.232;2023-02-13T07:56:05;21.93;;;13.57;;
4460;SDS011;2243;48.812;9.232;2023-02-13T07:58:37;24.03;;;14.47;;
4460;SDS011;2243;48.812;9.232;2023-02-13T08:01:12;26.60;;;13.50;;
4460;SDS011;2243;48.812;9.232;2023-02-13T08:03:48;19.50;;;13.70;;
4460;SDS011;2243;48.812;9.232;2023-02-13T08:06:20;24.80;;;13.40;;
4460;SDS011;2243;48.812;9.232;2023-02-13T08:08:51;25.67;;;13.50;;
4460;SDS011;2243;48.812;9.232;2023-02-13T08:11:42;21.30;;;13.37;;
4460;SDS011;2243;48.812;9.232;2023-02-13T08:14:25;22.33;;;14.40;;
4460;SDS011;2243;48.812;9.232;2023-02-13T08:16:57;20.20;;;13.53;;
4460;SDS011;2243;48.812;9.232;2023-02-13T08:19:30;23.13;;;13.77;;
4460;SDS011;2243;48.812;9.232;2023-02-13T08:22:01;27.53;;;16.50;;
4460;SDS011;2243;48.812;9.232;2023-02-13T08:24:32;28.07;;;15.80;;
4460;SDS011;2243;48.812;9.232;2023-02-13T08:27:03;32.60;;;17.27;;
4460;SDS011;2243;48.812;9.232;2023-02-13T08:29:34;26.70;;;16.77;;
4460;SDS011;2243;48.812;9.232;2023-02-13T08:32:05;27.83;;;15.37;;
4460;SDS011;2243;48.812;9.232;2023-02-13T08:34:36;22.20;;;14.70;;
4460;SDS011;2243;48.812;9.232;2023-02-13T08:37:07;20.97;;;14.50;;
4460;SDS011;2243;48.812;9.232;2023-02-13T08:39:38;23.80;;;15.53;;
4460;SDS011;2243;48.812;9.232;2023-02-13T08:42:09;22.87;;;14.60;;
4460;SDS011;2243;48.812;9.232;2023-02-13T08:44:45;26.03;;;14.73;;
4460;SDS011;2243;48.812;9.232;2023-02-13T08:47:16;24.57;;;13.83;;
4460;SDS011;2243;48.812;9.232;2023-02-13T08:49:47;23.30;;;12.37;;
4460;SDS011;2243;48.812;9.232;2023-02-13T08:52:18;22.30;;;13.47;;
4460;SDS011;2243;48.812;9.232;2023-02-13T08:54:49;18.50;;;13.20;;
4460;SDS011;2243;48.812;9.232;2023-02-13T08:57:19;22.80;;;13.70;;
4460;SDS011;2243;48.812;9.232;2023-02-13T08:59:50;22.30;;;13.07;;
4460;SDS011;2243;48.812;9.232;2023-02-13T09:02:21;25.63;;;13.97;;
4460;SDS011;2243;48.812;9.232;2023-02-13T09:04:52;22.30;;;12.67;;
4460;SDS011;2243;48.812;9.232;2023-02-13T09:07:23;17.67;;;11.80;;
4460;SDS011;2243;48.812;9.232;2023-02-13T09:09:54;14.80;;;11.60;;
4460;SDS011;2243;48.812;9.232;2023-02-13T09:12:25;21.70;;;13.20;;
4460;SDS011;2243;48.812;9.232;2023-02-13T09:14:56;17.80;;;12.50;;
4460;SDS011;2243;48.812;9.232;2023-02-13T09:17:27;17.10;;;11.37;;
4460;SDS011;2243;48.812;9.232;2023-02-13T09:19:58;21.00;;;12.53;;
4460;SDS011;2243;48.812;9.232;2023-02-13T09:22:29;17.90;;;11.73;;
4460;SDS011;2243;48.812;9.232;2023-02-13T09:25:00;18.70;;;10.53;;
4460;SDS011;2243;48.812;9.232;2023-02-13T09:27:34;16.03;;;11.90;;
4460;SDS011;2243;48.812;9.232;2023-02-13T09:30:07;15.80;;;11.20;;
4460;SDS011;2243;48.812;9.232;2023-02-13T09:32:40;18.17;;;11.40;;
4460;SDS011;2243;48.812;9.232;2023-02-13T09:35:11;17.33;;;12.03;;
4460;SDS011;2243;48.812;9.232;2023-02-13T09:37:44;18.83;;;11.40;;
4460;SDS011;2243;48.812;9.232;2023-02-13T09:46:36;17.77;;;10.97;;
4460;SDS011;2243;48.812;9.232;2023-02-13T09:49:14;16.20;;;11.20;;
4460;SDS011;2243;48.812;9.232;2023-02-13T09:51:51;18.23;;;11.07;;
4460;SDS011;2243;48.812;9.232;2023-02-13T09:54:26;16.47;;;10.83;;
4460;SDS011;2243;48.812;9.232;2023-02-13T09:57:25;16.83;;;11.57;;
4460;SDS011;2243;48.812;9.232;2023-02-13T10:00:12;14.47;;;10.87;;
4460;SDS011;2243;48.812;9.232;2023-02-13T10:03:12;16.73;;;11.47;;
4460;SDS011;2243;48.812;9.232;2023-02-13T10:05:57;14.73;;;10.00;;
4460;SDS011;2243;48.812;9.232;2023-02-13T10:08:43;20.97;;;9.83;;
4460;SDS011;2243;48.812;9.232;2023-02-13T10:15:13;16.53;;;10.13;;
4460;SDS011;2243;48.812;9.232;2023-02-13T10:18:18;13.97;;;10.17;;
4460;SDS011;2243;48.812;9.232;2023-02-13T10:20:55;12.87;;;9.10;;
4460;SDS011;2243;48.812;9.232;2023-02-13T10:26:05;14.07;;;10.10;;
4460;SDS011;2243;48.812;9.232;2023-02-13T10:28:59;19.23;;;11.17;;
4460;SDS011;2243;48.812;9.232;2023-02-13T10:31:54;13.43;;;9.40;;
4460;SDS011;2243;48.812;9.232;2023-02-13T10:34:30;12.37;;;8.90;;
4460;SDS011;2243;48.812;9.232;2023-02-13T10:37:19;11.30;;;8.47;;
4460;SDS011;2243;48.812;9.232;2023-02-13T10:39:51;14.20;;;10.07;;
4460;SDS011;2243;48.812;9.232;2023-02-13T10:48:17;10.87;;;8.20;;
4460;SDS011;2243;48.812;9.232;2023-02-13T10:51:29;12.73;;;8.83;;
4460;SDS011;2243;48.812;9.232;2023-02-13T11:03:25;12.13;;;9.10;;
4460;SDS011;2243;48.812;9.232;2023-02-13T11:05:58;11.70;;;9.00;;
4460;SDS011;2243;48.812;9.232;2023-02-13T11:08:39;13.00;;;9.53;;
4460;SDS011;2243;48.812;9.232;2023-02-13T11:11:28;13.80;;;10.03;;
4460;SDS011;2243;48.812;9.232;2023-02-13T11:14:10;15.03;;;9.50;;
4460;SDS011;2243;48.812;9.232;2023-02-13T11:22:29;10.60;;;8.20;;
4460;SDS011;2243;48.812;9.232;2023-02-13T11:25:16;11.60;;;9.20;;
4460;SDS011;2243;48.812;9.232;2023-02-13T11:27:48;11.63;;;8.67;;
4460;SDS011;2243;48.812;9.232;2023-02-13T11:30:31;11.03;;;9.17;;
4460;SDS011;2243;48.812;9.232;2023-02-13T11:33:06;10.60;;;8.60;;
4460;SDS011;2243;48.812;9.232;2023-02-13T11:36:06;15.10;;;8.63;;
4460;SDS011;2243;48.812;9.232;2023-02-13T11:38:44;11.13;;;8.80;;
4460;SDS011;2243;48.812;9.232;2023-02-13T11:41:15;11.10;;;8.53;;
4460;SDS011;2243;48.812;9.232;2023-02-13T11:43:56;14.00;;;9.33;;
4460;SDS011;2243;48.812;9.232;2023-02-13T11:46:43;10.47;;;8.60;;
4460;SDS011;2243;48.812;9.232;2023-02-13T11:51:52;10.80;;;8.83;;
4460;SDS011;2243;48.812;9.232;2023-02-13T11:59:45;11.17;;;9.13;;
4460;SDS011;2243;48.812;9.232;2023-02-13T12:05:19;12.50;;;9.70;;
4460;SDS011;2243;48.812;9.232;2023-02-13T12:07:54;18.87;;;10.47;;
4460;SDS011;2243;48.812;9.232;2023-02-13T12:10:30;15.57;;;10.10;;
4460;SDS011;2243;48.812;9.232;2023-02-13T12:13:05;14.10;;;10.17;;
4460;SDS011;2243;48.812;9.232;2023-02-13T12:15:46;16.47;;;11.17;;
4460;SDS011;2243;48.812;9.232;2023-02-13T12:18:42;14.97;;;10.67;;
4460;SDS011;2243;48.812;9.232;2023-02-13T12:36:45;15.43;;;10.63;;
4460;SDS011;2243;48.812;9.232;2023-02-13T12:39:30;18.80;;;10.10;;
4460;SDS011;2243;48.812;9.232;2023-02-13T12:42:15;16.40;;;10.63;;
4460;SDS011;2243;48.812;9.232;2023-02-13T12:45:30;14.13;;;11.67;;
4460;SDS011;2243;48.812;9.232;2023-02-13T12:50:50;18.97;;;10.60;;
4460;SDS011;2243;48.812;9.232;2023-02-13T13:03:17;18.20;;;11.10;;
4460;SDS011;2243;48.812;9.232;2023-02-13T13:06:17;13.73;;;10.13;;
4460;SDS011;2243;48.812;9.232;2023-02-13T13:15:30;13.97;;;10.60;;
4460;SDS011;2243;48.812;9.232;2023-02-13T13:24:49;16.97;;;10.37;;
4460;SDS011;2243;48.812;9.232;2023-02-13T13:27:43;13.63;;;9.50;;
4460;SDS011;2243;48.812;9.232;2023-02-13T13:38:56;17.20;;;9.97;;
4460;SDS011;2243;48.812;9.232;2023-02-13T13:44:48;9.53;;;7.57;;
4460;SDS011;2243;48.812;9.232;2023-02-13T13:50:26;13.23;;;9.07;;
4460;SDS011;2243;48.812;9.232;2023-02-13T13:53:07;12.70;;;9.47;;
4460;SDS011;2243;48.812;9.232;2023-02-13T14:14:58;8.87;;;7.00;;
4460;SDS011;2243;48.812;9.232;2023-02-13T14:20:20;6.30;;;4.93;;
4460;SDS011;2243;48.812;9.232;2023-02-13T14:26:16;9.43;;;6.93;;
4460;SDS011;2243;48.812;9.232;2023-02-13T14:29:15;10.17;;;7.70;;
4460;SDS011;2243;48.812;9.232;2023-02-13T14:34:33;12.90;;;9.50;;
4460;SDS011;2243;48.812;9.232;2023-02-13T14:43:20;11.40;;;7.50;;
4460;SDS011;2243;48.812;9.232;2023-02-13T14:51:56;10.17;;;6.50;;
4460;SDS011;2243;48.812;9.232;2023-02-13T14:54:32;7.90;;;5.77;;
4460;SDS011;2243;48.812;9.232;2023-02-13T14:57:18;5.33;;;4.80;;
4460;SDS011;2243;48.812;9.232;2023-02-13T15:00:03;5.07;;;4.67;;
4460;SDS011;2243;48.812;9.232;2023-02-13T15:02:48;8.77;;;6.90;;
4460;SDS011;2243;48.812;9.232;2023-02-13T15:05:28;11.87;;;8.77;;
4460;SDS011;2243;48.812;9.232;2023-02-13T15:08:10;10.43;;;7.90;;
4460;SDS011;2243;48.812;9.232;2023-02-13T15:10:47;12.17;;;8.00;;
4460;SDS011;2243;48.812;9.232;2023-02-13T15:13:34;9.13;;;7.70;;
4460;SDS011;2243;48.812;9.232;2023-02-13T15:16:10;8.67;;;6.90;;
4460;SDS011;2243;48.812;9.232;2023-02-13T15:18:44;13.10;;;7.60;;
4460;SDS011;2243;48.812;9.232;2023-02-13T15:21:21;9.97;;;7.80;;
4460;SDS011;2243;48.812;9.232;2023-02-13T15:23:54;13.07;;;7.77;;
4460;SDS011;2243;48.812;9.232;2023-02-13T15:26:26;9.50;;;7.33;;
4460;SDS011;2243;48.812;9.232;2023-02-13T15:31:31;9.10;;;7.00;;
4460;SDS011;2243;48.812;9.232;2023-02-13T15:34:16;8.77;;;7.20;;
4460;SDS011;2243;48.812;9.232;2023-02-13T15:37:17;7.30;;;6.57;;
4460;SDS011;2243;48.812;9.232;2023-02-13T15:39:51;10.23;;;8.20;;
4460;SDS011;2243;48.812;9.232;2023-02-13T15:42:22;9.23;;;7.60;;
4460;SDS011;2243;48.812;9.232;2023-02-13T15:44:54;13.33;;;8.67;;
4460;SDS011;2243;48.812;9.232;2023-02-13T15:47:28;13.10;;;8.50;;
4460;SDS011;2243;48.812;9.232;2023-02-13T15:50:01;17.57;;;8.87;;
4460;SDS011;2243;48.812;9.232;2023-02-13T15:52:33;10.27;;;7.73;;
4460;SDS011;2243;48.812;9.232;2023-02-13T15:55:27;13.07;;;7.97;;
4460;SDS011;2243;48.812;9.232;2023-02-13T15:58:01;17.30;;;8.57;;
4460;SDS011;2243;48.812;9.232;2023-02-13T16:00:35;15.40;;;8.73;;
4460;SDS011;2243;48.812;9.232;2023-02-13T16:03:13;12.70;;;8.13;;
4460;SDS011;2243;48.812;9.232;2023-02-13T16:05:46;8.77;;;6.90;;
4460;SDS011;2243;48.812;9.232;2023-02-13T16:08:32;9.67;;;7.33;;
4460;SDS011;2243;48.812;9.232;2023-02-13T16:11:25;12.50;;;7.77;;
4460;SDS011;2243;48.812;9.232;2023-02-13T16:14:11;13.17;;;8.00;;
4460;SDS011;2243;48.812;9.232;2023-02-13T16:19:24;9.47;;;6.63;;
4460;SDS011;2243;48.812;9.232;2023-02-13T16:22:05;10.40;;;7.37;;
4460;SDS011;2243;48.812;9.232;2023-02-13T16:27:43;13.93;;;9.13;;
4460;SDS011;2243;48.812;9.232;2023-02-13T16:30:24;12.63;;;9.43;;
4460;SDS011;2243;48.812;9.232;2023-02-13T16:35:56;13.87;;;9.73;;
4460;SDS011;2243;48.812;9.232;2023-02-13T16:43:52;14.80;;;10.10;;
4460;SDS011;2243;48.812;9.232;2023-02-13T16:51:40;24.97;;;15.00;;
4460;SDS011;2243;48.812;9.232;2023-02-13T16:54:48;18.07;;;12.20;;
4460;SDS011;2243;48.812;9.232;2023-02-13T16:57:28;30.73;;;16.60;;
4460;SDS011;2243;48.812;9.232;2023-02-13T17:00:04;15.43;;;10.73;;
4460;SDS011;2243;48.812;9.232;2023-02-13T17:02:38;18.90;;;9.97;;
4460;SDS011;2243;48.812;9.232;2023-02-13T17:07:45;18.70;;;13.17;;
4460;SDS011;2243;48.812;9.232;2023-02-13T17:10:25;35.63;;;12.40;;
4460;SDS011;2243;48.812;9.232;2023-02-13T17:15:44;19.77;;;15.07;;
4460;SDS011;2243;48.812;9.232;2023-02-13T17:18:18;20.70;;;10.67;;
4460;SDS011;2243;48.812;9.232;2023-02-13T17:20:49;11.27;;;8.87;;
4460;SDS011;2243;48.812;9.232;2023-02-13T17:23:21;12.87;;;9.80;;
4460;SDS011;2243;48.812;9.232;2023-02-13T17:25:53;16.30;;;9.10;;
4460;SDS011;2243;48.812;9.232;2023-02-13T17:28:25;11.97;;;8.80;;
4460;SDS011;2243;48.812;9.232;2023-02-13T17:30:58;13.90;;;9.10;;
4460;SDS011;2243;48.812;9.232;2023-02-13T17:33:31;20.70;;;10.47;;
4460;SDS011;2243;48.812;9.232;2023-02-13T17:36:06;17.27;;;11.60;;
4460;SDS011;2243;48.812;9.232;2023-02-13T17:38:40;15.60;;;10.70;;
4460;SDS011;2243;48.812;9.232;2023-02-13T17:41:13;15.83;;;9.63;;
4460;SDS011;2243;48.812;9.232;2023-02-13T17:43:45;18.43;;;10.87;;
4460;SDS011;2243;48.812;9.232;2023-02-13T17:46:16;15.00;;;10.23;;
4460;SDS011;2243;48.812;9.232;2023-02-13T17:48:47;17.03;;;11.13;;
4460;SDS011;2243;48.812;9.232;2023-02-13T17:51:18;16.27;;;11.10;;
4460;SDS011;2243;48.812;9.232;2023-02-13T17:53:49;13.60;;;10.27;;
4460;SDS011;2243;48.812;9.232;2023-02-13T17:56:25;18.77;;;10.20;;
4460;SDS011;2243;48.812;9.232;2023-02-13T17:58:56;20.47;;;11.00;;
4460;SDS011;2243;48.812;9.232;2023-02-13T18:01:27;15.83;;;10.93;;
4460;SDS011;2243;48.812;9.232;2023-02-13T18:03:58;16.73;;;11.10;;
4460;SDS011;2243;48.812;9.232;2023-02-13T18:06:29;18.53;;;12.47;;
4460;SDS011;2243;48.812;9.232;2023-02-13T18:09:00;18.33;;;11.23;;
4460;SDS011;2243;48.812;9.232;2023-02-13T18:11:31;17.40;;;11.10;;
4460;SDS011;2243;48.812;9.232;2023-02-13T18:14:02;16.97;;;11.20;;
4460;SDS011;2243;48.812;9.232;2023-02-13T18:16:33;14.10;;;9.63;;
4460;SDS011;2243;48.812;9.232;2023-02-13T18:19:04;19.93;;;12.33;;
4460;SDS011;2243;48.812;9.232;2023-02-13T18:21:35;18.60;;;11.80;;
4460;SDS011;2243;48.812;9.232;2023-02-13T18:24:06;17.97;;;11.70;;
4460;SDS011;2243;48.812;9.232;2023-02-13T18:26:37;15.37;;;10.43;;
4460;SDS011;2243;48.812;9.232;2023-02-13T18:29:08;15.77;;;11.27;;
4460;SDS011;2243;48.812;9.232;2023-02-13T18:31:39;19.83;;;12.03;;
4460;SDS011;2243;48.812;9.232;2023-02-13T18:34:10;15.10;;;10.53;;
4460;SDS011;2243;48.812;9.232;2023-02-13T18:36:41;16.73;;;10.80;;
4460;SDS011;2243;48.812;9.232;2023-02-13T18:39:12;20.60;;;11.10;;
4460;SDS011;2243;48.812;9.232;2023-02-13T18:41:44;19.50;;;12.30;;
4460;SDS011;2243;48.812;9.232;2023-02-13T18:44:15;15.83;;;10.63;;
4460;SDS011;2243;48.812;9.232;2023-02-13T18:46:57;18.83;;;11.90;;
4460;SDS011;2243;48.812;9.232;2023-02-13T18:49:29;17.57;;;10.70;;
4460;SDS011;2243;48.812;9.232;2023-02-13T18:52:00;17.13;;;11.10;;
4460;SDS011;2243;48.812;9.232;2023-02-13T18:54:31;16.73;;;11.40;;
4460;SDS011;2243;48.812;9.232;2023-02-13T18:57:02;16.13;;;10.43;;
4460;SDS011;2243;48.812;9.232;2023-02-13T18:59:33;17.27;;;10.37;;
4460;SDS011;2243;48.812;9.232;2023-02-13T19:02:04;19.03;;;11.67;;
4460;SDS011;2243;48.812;9.232;2023-02-13T19:04:35;16.30;;;10.40;;
4460;SDS011;2243;48.812;9.232;2023-02-13T19:07:07;19.03;;;11.87;;
4460;SDS011;2243;48.812;9.232;2023-02-13T19:09:38;19.43;;;12.67;;
4460;SDS011;2243;48.812;9.232;2023-02-13T19:12:09;18.90;;;11.40;;